sensor_id;sensor_type;location;lat;lon;timestamp;temperature;humidity
53978;DHT22;39886;47.984;-1.586;2023-09-30T00:01:43;21.10;72.10
53978;DHT22;39886;47.984;-1.586;2023-09-30T00:04:09;21.10;72.10
53978;DHT22;39886;47.984;-1.586;2023-09-30T00:06:35;21.10;72.20
53978;DHT22;39886;47.984;-1.586;2023-09-30T00:09:00;21.10;72.20
53978;DHT22;39886;47.984;-1.586;2023-09-30T00:11:26;21.10;72.20
53978;DHT22;39886;47.984;-1.586;2023-09-30T00:13:52;21.10;72.20
53978;DHT22;39886;47.984;-1.586;2023-09-30T00:16:17;21.10;72.20
53978;DHT22;39886;47.984;-1.586;2023-09-30T00:18:44;21.10;72.20
53978;DHT22;39886;47.984;-1.586;2023-09-30T00:21:10;21.10;72.20
53978;DHT22;39886;47.984;-1.586;2023-09-30T00:23:35;21.10;72.20
53978;DHT22;39886;47.984;-1.586;2023-09-30T00:26:01;21.10;72.20
53978;DHT22;39886;47.984;-1.586;2023-09-30T00:28:27;21.10;72.30
53978;DHT22;39886;47.984;-1.586;2023-09-30T00:30:53;21.10;72.30
53978;DHT22;39886;47.984;-1.586;2023-09-30T00:33:19;21.10;72.30
53978;DHT22;39886;47.984;-1.586;2023-09-30T00:35:44;21.10;72.30
53978;DHT22;39886;47.984;-1.586;2023-09-30T00:38:10;21.10;72.30
53978;DHT22;39886;47.984;-1.586;2023-09-30T00:40:36;21.10;72.30
53978;DHT22;39886;47.984;-1.586;2023-09-30T00:43:02;21.10;72.30
53978;DHT22;39886;47.984;-1.586;2023-09-30T00:45:28;21.10;72.40
53978;DHT22;39886;47.984;-1.586;2023-09-30T00:47:53;21.10;72.40
53978;DHT22;39886;47.984;-1.586;2023-09-30T00:50:19;21.00;72.30
53978;DHT22;39886;47.984;-1.586;2023-09-30T00:52:46;21.10;72.30
53978;DHT22;39886;47.984;-1.586;2023-09-30T00:55:12;21.00;72.30
53978;DHT22;39886;47.984;-1.586;2023-09-30T00:57:37;21.00;72.30
53978;DHT22;39886;47.984;-1.586;2023-09-30T01:00:04;21.00;72.30
53978;DHT22;39886;47.984;-1.586;2023-09-30T01:02:31;21.00;72.30
53978;DHT22;39886;47.984;-1.586;2023-09-30T01:04:57;21.00;72.30
53978;DHT22;39886;47.984;-1.586;2023-09-30T01:07:23;21.00;72.40
53978;DHT22;39886;47.984;-1.586;2023-09-30T01:09:49;21.00;72.40
53978;DHT22;39886;47.984;-1.586;2023-09-30T01:12:16;21.00;72.40
53978;DHT22;39886;47.984;-1.586;2023-09-30T01:14:41;21.00;72.40
53978;DHT22;39886;47.984;-1.586;2023-09-30T01:17:08;21.00;72.40
53978;DHT22;39886;47.984;-1.586;2023-09-30T01:19:40;21.00;72.40
53978;DHT22;39886;47.984;-1.586;2023-09-30T01:22:05;21.00;72.40
53978;DHT22;39886;47.984;-1.586;2023-09-30T01:24:41;21.00;72.40
53978;DHT22;39886;47.984;-1.586;2023-09-30T01:27:07;21.00;72.40
53978;DHT22;39886;47.984;-1.586;2023-09-30T01:29:32;21.00;72.40
53978;DHT22;39886;47.984;-1.586;2023-09-30T01:31:58;21.00;72.40
53978;DHT22;39886;47.984;-1.586;2023-09-30T01:34:23;21.00;72.40
53978;DHT22;39886;47.984;-1.586;2023-09-30T01:36:49;21.00;72.40
53978;DHT22;39886;47.984;-1.586;2023-09-30T01:39:14;21.00;72.40
53978;DHT22;39886;47.984;-1.586;2023-09-30T01:41:40;21.00;72.40
53978;DHT22;39886;47.984;-1.586;2023-09-30T01:44:06;20.90;72.40
53978;DHT22;39886;47.984;-1.586;2023-09-30T01:46:32;21.00;72.50
53978;DHT22;39886;47.984;-1.586;2023-09-30T01:48:57;21.00;72.40
53978;DHT22;39886;47.984;-1.586;2023-09-30T01:51:23;21.00;72.50
53978;DHT22;39886;47.984;-1.586;2023-09-30T01:53:49;21.00;72.40
53978;DHT22;39886;47.984;-1.586;2023-09-30T01:56:15;21.00;72.50
53978;DHT22;39886;47.984;-1.586;2023-09-30T01:58:40;21.00;72.50
53978;DHT22;39886;47.984;-1.586;2023-09-30T02:01:06;21.00;72.50
53978;DHT22;39886;47.984;-1.586;2023-09-30T02:03:31;21.00;73.20
53978;DHT22;39886;47.984;-1.586;2023-09-30T02:05:57;21.00;72.50
53978;DHT22;39886;47.984;-1.586;2023-09-30T02:08:23;21.00;72.50
53978;DHT22;39886;47.984;-1.586;2023-09-30T02:10:48;21.00;73.20
53978;DHT22;39886;47.984;-1.586;2023-09-30T02:13:16;21.00;72.50
53978;DHT22;39886;47.984;-1.586;2023-09-30T02:15:42;21.00;72.50
53978;DHT22;39886;47.984;-1.586;2023-09-30T02:18:08;21.00;72.50
53978;DHT22;39886;47.984;-1.586;2023-09-30T02:20:34;21.00;72.50
53978;DHT22;39886;47.984;-1.586;2023-09-30T02:23:00;20.90;72.50
53978;DHT22;39886;47.984;-1.586;2023-09-30T02:25:27;20.90;72.50
53978;DHT22;39886;47.984;-1.586;2023-09-30T02:27:53;20.90;72.50
53978;DHT22;39886;47.984;-1.586;2023-09-30T02:30:19;20.90;72.50
53978;DHT22;39886;47.984;-1.586;2023-09-30T02:32:46;20.90;72.50
53978;DHT22;39886;47.984;-1.586;2023-09-30T02:35:12;20.90;72.50
53978;DHT22;39886;47.984;-1.586;2023-09-30T02:37:37;20.90;72.40
53978;DHT22;39886;47.984;-1.586;2023-09-30T02:40:04;20.90;72.50
53978;DHT22;39886;47.984;-1.586;2023-09-30T02:42:30;20.90;72.50
53978;DHT22;39886;47.984;-1.586;2023-09-30T02:44:56;20.90;73.20
53978;DHT22;39886;47.984;-1.586;2023-09-30T02:47:24;20.90;72.50
53978;DHT22;39886;47.984;-1.586;2023-09-30T02:49:49;21.00;72.50
53978;DHT22;39886;47.984;-1.586;2023-09-30T02:52:15;20.90;72.50
53978;DHT22;39886;47.984;-1.586;2023-09-30T02:54:41;20.90;72.50
53978;DHT22;39886;47.984;-1.586;2023-09-30T02:57:06;20.90;72.50
53978;DHT22;39886;47.984;-1.586;2023-09-30T02:59:35;20.90;72.50
53978;DHT22;39886;47.984;-1.586;2023-09-30T03:02:01;20.90;72.50
53978;DHT22;39886;47.984;-1.586;2023-09-30T03:04:27;20.90;72.50
53978;DHT22;39886;47.984;-1.586;2023-09-30T03:06:53;20.90;72.50
53978;DHT22;39886;47.984;-1.586;2023-09-30T03:09:21;20.90;72.50
53978;DHT22;39886;47.984;-1.586;2023-09-30T03:11:47;20.90;72.50
53978;DHT22;39886;47.984;-1.586;2023-09-30T03:14:13;20.90;72.50
53978;DHT22;39886;47.984;-1.586;2023-09-30T03:16:39;20.90;72.60
53978;DHT22;39886;47.984;-1.586;2023-09-30T03:19:06;20.90;72.50
53978;DHT22;39886;47.984;-1.586;2023-09-30T03:21:34;20.90;72.50
53978;DHT22;39886;47.984;-1.586;2023-09-30T03:24:01;20.90;72.60
53978;DHT22;39886;47.984;-1.586;2023-09-30T03:26:28;20.90;72.60
53978;DHT22;39886;47.984;-1.586;2023-09-30T03:28:55;20.90;72.60
53978;DHT22;39886;47.984;-1.586;2023-09-30T03:31:20;20.90;72.50
53978;DHT22;39886;47.984;-1.586;2023-09-30T03:33:46;20.90;72.50
53978;DHT22;39886;47.984;-1.586;2023-09-30T03:36:13;20.90;72.50
53978;DHT22;39886;47.984;-1.586;2023-09-30T03:38:40;20.90;72.60
53978;DHT22;39886;47.984;-1.586;2023-09-30T03:41:06;20.90;72.60
53978;DHT22;39886;47.984;-1.586;2023-09-30T03:43:34;20.90;72.50
53978;DHT22;39886;47.984;-1.586;2023-09-30T03:46:02;20.90;72.60
53978;DHT22;39886;47.984;-1.586;2023-09-30T03:48:28;20.80;72.60
53978;DHT22;39886;47.984;-1.586;2023-09-30T03:50:53;20.80;72.50
53978;DHT22;39886;47.984;-1.586;2023-09-30T03:53:19;20.80;72.60
53978;DHT22;39886;47.984;-1.586;2023-09-30T03:55:45;20.80;72.60
53978;DHT22;39886;47.984;-1.586;2023-09-30T03:58:11;20.80;73.20
53978;DHT22;39886;47.984;-1.586;2023-09-30T04:00:38;20.80;72.60
53978;DHT22;39886;47.984;-1.586;2023-09-30T04:03:05;20.80;72.60
53978;DHT22;39886;47.984;-1.586;2023-09-30T04:05:30;20.80;72.60
53978;DHT22;39886;47.984;-1.586;2023-09-30T04:08:01;20.80;72.60
53978;DHT22;39886;47.984;-1.586;2023-09-30T04:10:27;20.80;72.70
53978;DHT22;39886;47.984;-1.586;2023-09-30T04:12:55;20.80;72.70
53978;DHT22;39886;47.984;-1.586;2023-09-30T04:15:21;20.80;72.70
53978;DHT22;39886;47.984;-1.586;2023-09-30T04:17:48;20.80;72.70
53978;DHT22;39886;47.984;-1.586;2023-09-30T04:20:13;20.80;72.70
53978;DHT22;39886;47.984;-1.586;2023-09-30T04:22:45;20.80;72.70
53978;DHT22;39886;47.984;-1.586;2023-09-30T04:25:17;20.80;72.70
53978;DHT22;39886;47.984;-1.586;2023-09-30T04:27:43;20.80;72.70
53978;DHT22;39886;47.984;-1.586;2023-09-30T04:30:09;20.80;72.70
53978;DHT22;39886;47.984;-1.586;2023-09-30T04:32:36;20.80;72.70
53978;DHT22;39886;47.984;-1.586;2023-09-30T04:35:04;20.80;72.70
53978;DHT22;39886;47.984;-1.586;2023-09-30T04:37:30;20.80;72.70
53978;DHT22;39886;47.984;-1.586;2023-09-30T04:39:55;20.80;72.70
53978;DHT22;39886;47.984;-1.586;2023-09-30T04:42:21;20.80;72.70
53978;DHT22;39886;47.984;-1.586;2023-09-30T04:44:48;20.80;72.70
53978;DHT22;39886;47.984;-1.586;2023-09-30T04:47:14;20.70;72.70
53978;DHT22;39886;47.984;-1.586;2023-09-30T04:49:40;20.80;72.70
53978;DHT22;39886;47.984;-1.586;2023-09-30T04:52:05;20.70;72.70
53978;DHT22;39886;47.984;-1.586;2023-09-30T04:54:33;20.80;72.70
53978;DHT22;39886;47.984;-1.586;2023-09-30T04:57:01;20.80;72.70
53978;DHT22;39886;47.984;-1.586;2023-09-30T04:59:27;20.70;72.70
53978;DHT22;39886;47.984;-1.586;2023-09-30T05:01:53;20.70;72.70
53978;DHT22;39886;47.984;-1.586;2023-09-30T05:04:19;20.70;72.70
53978;DHT22;39886;47.984;-1.586;2023-09-30T05:06:45;20.70;72.70
53978;DHT22;39886;47.984;-1.586;2023-09-30T05:09:11;20.70;72.70
53978;DHT22;39886;47.984;-1.586;2023-09-30T05:11:37;20.70;72.70
53978;DHT22;39886;47.984;-1.586;2023-09-30T05:14:03;20.70;72.70
53978;DHT22;39886;47.984;-1.586;2023-09-30T05:16:30;20.70;72.70
53978;DHT22;39886;47.984;-1.586;2023-09-30T05:18:57;20.70;72.80
53978;DHT22;39886;47.984;-1.586;2023-09-30T05:21:22;20.70;72.70
53978;DHT22;39886;47.984;-1.586;2023-09-30T05:23:48;20.70;72.70
53978;DHT22;39886;47.984;-1.586;2023-09-30T05:26:13;20.70;72.70
53978;DHT22;39886;47.984;-1.586;2023-09-30T05:28:39;20.70;72.70
53978;DHT22;39886;47.984;-1.586;2023-09-30T05:31:05;20.70;72.70
53978;DHT22;39886;47.984;-1.586;2023-09-30T05:33:31;20.70;72.80
53978;DHT22;39886;47.984;-1.586;2023-09-30T05:35:57;20.70;72.80
53978;DHT22;39886;47.984;-1.586;2023-09-30T05:38:23;20.70;72.80
53978;DHT22;39886;47.984;-1.586;2023-09-30T05:40:50;20.70;72.80
53978;DHT22;39886;47.984;-1.586;2023-09-30T05:43:15;20.70;72.80
53978;DHT22;39886;47.984;-1.586;2023-09-30T05:45:42;20.70;72.80
53978;DHT22;39886;47.984;-1.586;2023-09-30T05:48:15;20.70;72.80
53978;DHT22;39886;47.984;-1.586;2023-09-30T05:50:41;20.70;72.80
53978;DHT22;39886;47.984;-1.586;2023-09-30T05:53:08;20.70;72.80
53978;DHT22;39886;47.984;-1.586;2023-09-30T05:55:35;20.70;72.80
53978;DHT22;39886;47.984;-1.586;2023-09-30T05:58:01;20.70;72.80
53978;DHT22;39886;47.984;-1.586;2023-09-30T06:00:27;20.70;72.80
53978;DHT22;39886;47.984;-1.586;2023-09-30T06:03:00;20.70;72.80
53978;DHT22;39886;47.984;-1.586;2023-09-30T06:05:26;20.70;72.80
53978;DHT22;39886;47.984;-1.586;2023-09-30T06:07:55;20.60;72.80
53978;DHT22;39886;47.984;-1.586;2023-09-30T06:10:21;20.60;72.80
53978;DHT22;39886;47.984;-1.586;2023-09-30T06:12:47;20.60;72.80
53978;DHT22;39886;47.984;-1.586;2023-09-30T06:15:13;20.60;72.80
53978;DHT22;39886;47.984;-1.586;2023-09-30T06:17:39;20.60;72.90
53978;DHT22;39886;47.984;-1.586;2023-09-30T06:20:05;20.60;72.80
53978;DHT22;39886;47.984;-1.586;2023-09-30T06:22:41;20.60;72.80
53978;DHT22;39886;47.984;-1.586;2023-09-30T06:25:07;20.60;72.90
53978;DHT22;39886;47.984;-1.586;2023-09-30T06:27:33;20.60;72.80
53978;DHT22;39886;47.984;-1.586;2023-09-30T06:29:58;20.60;72.80
53978;DHT22;39886;47.984;-1.586;2023-09-30T06:32:24;20.60;72.90
53978;DHT22;39886;47.984;-1.586;2023-09-30T06:34:49;20.60;73.50
53978;DHT22;39886;47.984;-1.586;2023-09-30T06:37:15;20.60;72.90
53978;DHT22;39886;47.984;-1.586;2023-09-30T06:39:40;20.60;72.90
53978;DHT22;39886;47.984;-1.586;2023-09-30T06:42:06;20.60;72.90
53978;DHT22;39886;47.984;-1.586;2023-09-30T06:44:32;20.60;72.90
53978;DHT22;39886;47.984;-1.586;2023-09-30T06:46:58;20.60;72.90
53978;DHT22;39886;47.984;-1.586;2023-09-30T06:49:23;20.60;72.90
53978;DHT22;39886;47.984;-1.586;2023-09-30T06:51:49;20.60;72.90
53978;DHT22;39886;47.984;-1.586;2023-09-30T06:54:15;20.60;72.90
53978;DHT22;39886;47.984;-1.586;2023-09-30T06:56:40;20.60;72.90
53978;DHT22;39886;47.984;-1.586;2023-09-30T06:59:06;20.60;72.90
53978;DHT22;39886;47.984;-1.586;2023-09-30T07:01:32;20.60;72.80
53978;DHT22;39886;47.984;-1.586;2023-09-30T07:03:57;20.60;72.90
53978;DHT22;39886;47.984;-1.586;2023-09-30T07:06:23;20.60;72.80
53978;DHT22;39886;47.984;-1.586;2023-09-30T07:08:49;20.60;72.80
53978;DHT22;39886;47.984;-1.586;2023-09-30T07:11:15;20.60;72.80
53978;DHT22;39886;47.984;-1.586;2023-09-30T07:13:40;20.60;72.80
53978;DHT22;39886;47.984;-1.586;2023-09-30T07:16:06;20.60;72.80
53978;DHT22;39886;47.984;-1.586;2023-09-30T07:18:31;20.60;72.70
53978;DHT22;39886;47.984;-1.586;2023-09-30T07:20:57;20.60;72.70
53978;DHT22;39886;47.984;-1.586;2023-09-30T07:23:22;20.60;72.70
53978;DHT22;39886;47.984;-1.586;2023-09-30T07:25:48;20.60;72.70
53978;DHT22;39886;47.984;-1.586;2023-09-30T07:28:14;20.60;72.70
53978;DHT22;39886;47.984;-1.586;2023-09-30T07:30:39;20.60;72.70
53978;DHT22;39886;47.984;-1.586;2023-09-30T07:33:05;20.60;72.70
53978;DHT22;39886;47.984;-1.586;2023-09-30T07:35:32;20.60;72.70
53978;DHT22;39886;47.984;-1.586;2023-09-30T07:37:57;20.60;72.70
53978;DHT22;39886;47.984;-1.586;2023-09-30T07:40:23;20.60;72.70
53978;DHT22;39886;47.984;-1.586;2023-09-30T07:42:48;20.60;72.70
53978;DHT22;39886;47.984;-1.586;2023-09-30T07:45:15;20.60;72.70
53978;DHT22;39886;47.984;-1.586;2023-09-30T07:47:45;20.60;72.70
53978;DHT22;39886;47.984;-1.586;2023-09-30T07:50:12;20.60;72.70
53978;DHT22;39886;47.984;-1.586;2023-09-30T07:52:38;20.70;72.70
53978;DHT22;39886;47.984;-1.586;2023-09-30T07:55:04;20.70;72.70
53978;DHT22;39886;47.984;-1.586;2023-09-30T07:57:30;20.70;72.70
53978;DHT22;39886;47.984;-1.586;2023-09-30T07:59:56;20.70;72.70
53978;DHT22;39886;47.984;-1.586;2023-09-30T08:02:21;20.70;72.70
53978;DHT22;39886;47.984;-1.586;2023-09-30T08:04:48;20.70;72.70
53978;DHT22;39886;47.984;-1.586;2023-09-30T08:07:13;20.70;72.60
53978;DHT22;39886;47.984;-1.586;2023-09-30T08:09:39;20.70;72.60
53978;DHT22;39886;47.984;-1.586;2023-09-30T08:12:04;20.70;72.60
53978;DHT22;39886;47.984;-1.586;2023-09-30T08:14:30;20.70;72.60
53978;DHT22;39886;47.984;-1.586;2023-09-30T08:16:56;20.70;72.60
53978;DHT22;39886;47.984;-1.586;2023-09-30T08:19:22;20.80;72.60
53978;DHT22;39886;47.984;-1.586;2023-09-30T08:21:47;20.80;72.60
53978;DHT22;39886;47.984;-1.586;2023-09-30T08:24:14;20.80;72.60
53978;DHT22;39886;47.984;-1.586;2023-09-30T08:26:39;20.80;72.50
53978;DHT22;39886;47.984;-1.586;2023-09-30T08:29:05;20.80;72.50
53978;DHT22;39886;47.984;-1.586;2023-09-30T08:31:31;20.80;72.50
53978;DHT22;39886;47.984;-1.586;2023-09-30T08:33:58;20.80;72.50
53978;DHT22;39886;47.984;-1.586;2023-09-30T08:36:23;20.80;72.50
53978;DHT22;39886;47.984;-1.586;2023-09-30T08:38:50;20.80;72.50
53978;DHT22;39886;47.984;-1.586;2023-09-30T08:44:10;20.80;72.40
53978;DHT22;39886;47.984;-1.586;2023-09-30T08:46:36;20.80;72.40
53978;DHT22;39886;47.984;-1.586;2023-09-30T08:49:03;20.90;72.40
53978;DHT22;39886;47.984;-1.586;2023-09-30T08:51:29;20.90;72.40
53978;DHT22;39886;47.984;-1.586;2023-09-30T08:53:55;20.90;72.40
53978;DHT22;39886;47.984;-1.586;2023-09-30T08:56:24;20.90;72.40
53978;DHT22;39886;47.984;-1.586;2023-09-30T08:58:50;20.90;72.30
53978;DHT22;39886;47.984;-1.586;2023-09-30T09:01:16;20.90;72.30
53978;DHT22;39886;47.984;-1.586;2023-09-30T09:03:41;20.90;72.30
53978;DHT22;39886;47.984;-1.586;2023-09-30T09:06:07;20.90;72.20
53978;DHT22;39886;47.984;-1.586;2023-09-30T09:08:32;20.90;72.20
53978;DHT22;39886;47.984;-1.586;2023-09-30T09:10:58;20.90;72.20
53978;DHT22;39886;47.984;-1.586;2023-09-30T09:13:25;20.90;72.20
53978;DHT22;39886;47.984;-1.586;2023-09-30T09:16:11;21.00;72.20
53978;DHT22;39886;47.984;-1.586;2023-09-30T09:18:37;21.00;72.20
53978;DHT22;39886;47.984;-1.586;2023-09-30T09:21:09;21.00;72.10
53978;DHT22;39886;47.984;-1.586;2023-09-30T09:23:41;21.00;72.10
53978;DHT22;39886;47.984;-1.586;2023-09-30T09:26:08;21.00;72.10
53978;DHT22;39886;47.984;-1.586;2023-09-30T09:28:34;21.00;72.10
53978;DHT22;39886;47.984;-1.586;2023-09-30T09:31:00;21.00;72.00
53978;DHT22;39886;47.984;-1.586;2023-09-30T09:33:34;21.00;72.00
53978;DHT22;39886;47.984;-1.586;2023-09-30T09:36:00;21.00;72.00
53978;DHT22;39886;47.984;-1.586;2023-09-30T09:38:26;21.10;72.70
53978;DHT22;39886;47.984;-1.586;2023-09-30T09:40:51;21.10;72.00
53978;DHT22;39886;47.984;-1.586;2023-09-30T09:43:24;21.10;72.00
53978;DHT22;39886;47.984;-1.586;2023-09-30T09:45:50;21.10;72.00
53978;DHT22;39886;47.984;-1.586;2023-09-30T09:48:16;21.10;71.90
53978;DHT22;39886;47.984;-1.586;2023-09-30T09:50:42;21.10;71.90
53978;DHT22;39886;47.984;-1.586;2023-09-30T09:53:12;21.10;71.80
53978;DHT22;39886;47.984;-1.586;2023-09-30T09:55:39;21.10;71.80
53978;DHT22;39886;47.984;-1.586;2023-09-30T09:58:08;21.10;71.80
53978;DHT22;39886;47.984;-1.586;2023-09-30T10:00:34;21.10;71.80
53978;DHT22;39886;47.984;-1.586;2023-09-30T10:03:01;21.20;71.80
53978;DHT22;39886;47.984;-1.586;2023-09-30T10:05:28;21.20;72.40
53978;DHT22;39886;47.984;-1.586;2023-09-30T10:07:56;21.20;71.70
53978;DHT22;39886;47.984;-1.586;2023-09-30T10:10:23;21.20;71.70
53978;DHT22;39886;47.984;-1.586;2023-09-30T10:12:50;21.20;71.70
53978;DHT22;39886;47.984;-1.586;2023-09-30T10:20:49;21.20;71.60
53978;DHT22;39886;47.984;-1.586;2023-09-30T10:25:44;21.30;71.60
53978;DHT22;39886;47.984;-1.586;2023-09-30T10:33:34;21.30;71.60
53978;DHT22;39886;47.984;-1.586;2023-09-30T10:35:59;21.30;71.60
53978;DHT22;39886;47.984;-1.586;2023-09-30T10:40:54;21.30;71.50
53978;DHT22;39886;47.984;-1.586;2023-09-30T10:43:33;21.40;71.60
53978;DHT22;39886;47.984;-1.586;2023-09-30T10:46:01;21.30;71.50
53978;DHT22;39886;47.984;-1.586;2023-09-30T10:51:01;21.40;71.50
53978;DHT22;39886;47.984;-1.586;2023-09-30T10:53:27;21.40;71.50
53978;DHT22;39886;47.984;-1.586;2023-09-30T10:55:57;21.40;71.40
53978;DHT22;39886;47.984;-1.586;2023-09-30T10:58:38;21.40;71.40
53978;DHT22;39886;47.984;-1.586;2023-09-30T11:01:04;21.50;71.30
53978;DHT22;39886;47.984;-1.586;2023-09-30T11:03:29;21.40;71.20
53978;DHT22;39886;47.984;-1.586;2023-09-30T11:05:55;21.50;71.00
53978;DHT22;39886;47.984;-1.586;2023-09-30T11:08:21;21.50;71.00
53978;DHT22;39886;47.984;-1.586;2023-09-30T11:10:48;21.50;70.90
53978;DHT22;39886;47.984;-1.586;2023-09-30T11:13:16;21.60;70.80
53978;DHT22;39886;47.984;-1.586;2023-09-30T11:15:43;21.60;70.70
53978;DHT22;39886;47.984;-1.586;2023-09-30T11:18:15;21.50;70.70
53978;DHT22;39886;47.984;-1.586;2023-09-30T11:20:42;21.60;70.60
53978;DHT22;39886;47.984;-1.586;2023-09-30T11:23:08;21.60;70.50
53978;DHT22;39886;47.984;-1.586;2023-09-30T11:25:37;21.70;70.50
53978;DHT22;39886;47.984;-1.586;2023-09-30T11:28:13;21.60;70.40
53978;DHT22;39886;47.984;-1.586;2023-09-30T11:30:58;21.60;70.40
53978;DHT22;39886;47.984;-1.586;2023-09-30T11:33:24;21.70;70.40
53978;DHT22;39886;47.984;-1.586;2023-09-30T11:38:29;21.70;70.30
53978;DHT22;39886;47.984;-1.586;2023-09-30T11:41:03;21.70;70.40
53978;DHT22;39886;47.984;-1.586;2023-09-30T11:43:31;21.70;70.20
53978;DHT22;39886;47.984;-1.586;2023-09-30T11:46:06;21.70;70.20
53978;DHT22;39886;47.984;-1.586;2023-09-30T11:48:34;21.80;70.20
53978;DHT22;39886;47.984;-1.586;2023-09-30T11:51:00;21.70;70.10
53978;DHT22;39886;47.984;-1.586;2023-09-30T11:53:31;21.80;70.10
53978;DHT22;39886;47.984;-1.586;2023-09-30T11:56:00;21.80;70.10
53978;DHT22;39886;47.984;-1.586;2023-09-30T11:58:27;21.80;70.00
53978;DHT22;39886;47.984;-1.586;2023-09-30T12:00:54;21.80;70.00
53978;DHT22;39886;47.984;-1.586;2023-09-30T12:03:19;21.80;70.00
53978;DHT22;39886;47.984;-1.586;2023-09-30T12:05:45;21.80;69.90
53978;DHT22;39886;47.984;-1.586;2023-09-30T12:08:11;21.80;69.80
53978;DHT22;39886;47.984;-1.586;2023-09-30T12:10:37;21.90;69.80
53978;DHT22;39886;47.984;-1.586;2023-09-30T12:13:02;21.90;69.80
53978;DHT22;39886;47.984;-1.586;2023-09-30T12:15:28;21.90;69.70
53978;DHT22;39886;47.984;-1.586;2023-09-30T12:17:54;21.90;69.70
53978;DHT22;39886;47.984;-1.586;2023-09-30T12:20:19;21.90;69.70
53978;DHT22;39886;47.984;-1.586;2023-09-30T12:22:46;21.90;69.60
53978;DHT22;39886;47.984;-1.586;2023-09-30T12:25:11;22.00;69.50
53978;DHT22;39886;47.984;-1.586;2023-09-30T12:27:37;22.00;69.50
53978;DHT22;39886;47.984;-1.586;2023-09-30T12:30:05;22.00;69.30
53978;DHT22;39886;47.984;-1.586;2023-09-30T12:32:32;22.00;69.30
53978;DHT22;39886;47.984;-1.586;2023-09-30T12:34:57;22.10;69.20
53978;DHT22;39886;47.984;-1.586;2023-09-30T12:37:23;22.10;69.10
53978;DHT22;39886;47.984;-1.586;2023-09-30T12:39:49;22.10;69.00
53978;DHT22;39886;47.984;-1.586;2023-09-30T12:42:14;22.20;68.90
53978;DHT22;39886;47.984;-1.586;2023-09-30T12:44:41;22.20;68.90
53978;DHT22;39886;47.984;-1.586;2023-09-30T12:47:06;22.20;68.90
53978;DHT22;39886;47.984;-1.586;2023-09-30T12:49:32;22.20;68.80
53978;DHT22;39886;47.984;-1.586;2023-09-30T12:51:57;22.20;68.70
53978;DHT22;39886;47.984;-1.586;2023-09-30T12:54:24;22.20;68.70
53978;DHT22;39886;47.984;-1.586;2023-09-30T12:56:50;22.20;68.70
53978;DHT22;39886;47.984;-1.586;2023-09-30T12:59:16;22.20;68.70
53978;DHT22;39886;47.984;-1.586;2023-09-30T13:01:43;22.30;68.40
53978;DHT22;39886;47.984;-1.586;2023-09-30T13:04:09;22.40;68.20
53978;DHT22;39886;47.984;-1.586;2023-09-30T13:06:36;22.30;68.30
53978;DHT22;39886;47.984;-1.586;2023-09-30T13:09:02;22.30;68.40
53978;DHT22;39886;47.984;-1.586;2023-09-30T13:11:30;22.30;68.40
53978;DHT22;39886;47.984;-1.586;2023-09-30T13:13:55;22.30;68.30
53978;DHT22;39886;47.984;-1.586;2023-09-30T13:16:21;22.30;68.50
53978;DHT22;39886;47.984;-1.586;2023-09-30T13:18:47;22.30;68.60
53978;DHT22;39886;47.984;-1.586;2023-09-30T13:21:13;22.20;68.60
53978;DHT22;39886;47.984;-1.586;2023-09-30T13:23:39;22.20;68.70
53978;DHT22;39886;47.984;-1.586;2023-09-30T13:26:04;22.20;68.70
53978;DHT22;39886;47.984;-1.586;2023-09-30T13:28:30;22.20;68.70
53978;DHT22;39886;47.984;-1.586;2023-09-30T13:30:56;22.20;68.70
53978;DHT22;39886;47.984;-1.586;2023-09-30T13:33:22;22.20;68.70
53978;DHT22;39886;47.984;-1.586;2023-09-30T13:35:47;22.20;68.80
53978;DHT22;39886;47.984;-1.586;2023-09-30T13:38:13;22.20;68.80
53978;DHT22;39886;47.984;-1.586;2023-09-30T13:40:38;22.20;68.80
53978;DHT22;39886;47.984;-1.586;2023-09-30T13:43:05;22.20;68.70
53978;DHT22;39886;47.984;-1.586;2023-09-30T13:45:31;22.30;68.70
53978;DHT22;39886;47.984;-1.586;2023-09-30T13:47:56;22.20;68.70
53978;DHT22;39886;47.984;-1.586;2023-09-30T13:50:22;22.20;68.70
53978;DHT22;39886;47.984;-1.586;2023-09-30T13:52:47;22.20;68.70
53978;DHT22;39886;47.984;-1.586;2023-09-30T13:55:13;22.30;68.70
53978;DHT22;39886;47.984;-1.586;2023-09-30T13:57:47;22.30;68.50
53978;DHT22;39886;47.984;-1.586;2023-09-30T14:00:13;22.40;68.30
53978;DHT22;39886;47.984;-1.586;2023-09-30T14:02:39;22.40;68.00
53978;DHT22;39886;47.984;-1.586;2023-09-30T14:05:05;22.50;67.70
53978;DHT22;39886;47.984;-1.586;2023-09-30T14:07:33;22.50;67.80
53978;DHT22;39886;47.984;-1.586;2023-09-30T14:09:58;22.50;67.80
53978;DHT22;39886;47.984;-1.586;2023-09-30T14:12:24;22.50;67.80
53978;DHT22;39886;47.984;-1.586;2023-09-30T14:14:49;22.50;67.80
53978;DHT22;39886;47.984;-1.586;2023-09-30T14:17:17;22.50;67.90
53978;DHT22;39886;47.984;-1.586;2023-09-30T14:19:43;22.50;68.10
53978;DHT22;39886;47.984;-1.586;2023-09-30T14:22:08;22.50;68.20
53978;DHT22;39886;47.984;-1.586;2023-09-30T14:24:34;22.50;68.20
53978;DHT22;39886;47.984;-1.586;2023-09-30T14:27:04;22.50;68.10
53978;DHT22;39886;47.984;-1.586;2023-09-30T14:29:30;22.50;68.00
53978;DHT22;39886;47.984;-1.586;2023-09-30T14:31:56;22.50;67.90
53978;DHT22;39886;47.984;-1.586;2023-09-30T14:34:23;22.60;67.90
53978;DHT22;39886;47.984;-1.586;2023-09-30T14:36:51;22.60;67.90
53978;DHT22;39886;47.984;-1.586;2023-09-30T14:39:17;22.60;67.80
53978;DHT22;39886;47.984;-1.586;2023-09-30T14:41:43;22.60;67.80
53978;DHT22;39886;47.984;-1.586;2023-09-30T14:44:09;22.60;68.40
53978;DHT22;39886;47.984;-1.586;2023-09-30T14:46:40;22.60;67.80
53978;DHT22;39886;47.984;-1.586;2023-09-30T14:49:06;22.60;67.70
53978;DHT22;39886;47.984;-1.586;2023-09-30T14:51:32;22.60;67.70
53978;DHT22;39886;47.984;-1.586;2023-09-30T14:53:57;22.60;67.80
53978;DHT22;39886;47.984;-1.586;2023-09-30T14:56:23;22.60;67.90
53978;DHT22;39886;47.984;-1.586;2023-09-30T14:58:48;22.50;68.00
53978;DHT22;39886;47.984;-1.586;2023-09-30T15:01:14;22.50;68.00
53978;DHT22;39886;47.984;-1.586;2023-09-30T15:03:40;22.50;68.10
53978;DHT22;39886;47.984;-1.586;2023-09-30T15:06:06;22.50;68.10
53978;DHT22;39886;47.984;-1.586;2023-09-30T15:08:32;22.50;68.10
53978;DHT22;39886;47.984;-1.586;2023-09-30T15:10:58;22.50;68.20
53978;DHT22;39886;47.984;-1.586;2023-09-30T15:13:24;22.50;68.20
53978;DHT22;39886;47.984;-1.586;2023-09-30T15:15:50;22.50;68.20
53978;DHT22;39886;47.984;-1.586;2023-09-30T15:18:15;22.50;68.20
53978;DHT22;39886;47.984;-1.586;2023-09-30T15:20:41;22.50;68.30
53978;DHT22;39886;47.984;-1.586;2023-09-30T15:23:07;22.50;68.30
53978;DHT22;39886;47.984;-1.586;2023-09-30T15:25:33;22.50;68.40
53978;DHT22;39886;47.984;-1.586;2023-09-30T15:27:58;22.40;68.40
53978;DHT22;39886;47.984;-1.586;2023-09-30T15:30:24;22.40;68.40
53978;DHT22;39886;47.984;-1.586;2023-09-30T15:32:49;22.40;68.40
53978;DHT22;39886;47.984;-1.586;2023-09-30T15:35:15;22.40;68.50